Time;durP1;ratioP1;P1;durP2;ratioP2;P2;SDS_P1;SDS_P2;PMS_P1;PMS_P2;Temp;Humidity;BMP_temperature;BMP_pressure;BME280_temperature;BME280_humidity;BME280_pressure;Samples;Min_cycle;Max_cycle;Signal;HPM_P1;HPM_P2
2022/07/15 00:00:27;;;;;;;6.32;2.17;;;12.50;99.90;;;;;;5068441;28;20100;-68
2022/07/15 00:02:53;;;;;;;5.57;2.45;;;12.60;99.90;;;;;;5068220;28;20078;-68
2022/07/15 00:05:19;;;;;;;8.93;3.03;;;12.60;99.90;;;;;;5086321;28;20040;-68
2022/07/15 00:07:44;;;;;;;7.10;2.08;;;12.70;99.90;;;;;;5066750;28;20040;-68
2022/07/15 00:10:20;;;;;;;4.50;2.10;;;12.60;99.90;;;;;;5087172;28;20040;-68
2022/07/15 00:12:55;;;;;;;9.43;2.33;;;12.70;99.90;;;;;;5054042;28;20053;-68
2022/07/15 00:15:23;;;;;;;5.95;2.50;;;12.60;99.90;;;;;;5069248;28;22924;-68
2022/07/15 00:17:49;;;;;;;9.05;2.47;;;12.60;99.90;;;;;;5085838;28;20048;-68
2022/07/15 00:20:17;;;;;;;7.32;2.13;;;12.60;99.90;;;;;;5067972;28;20040;-68
2022/07/15 00:22:43;;;;;;;5.88;2.20;;;12.70;99.90;;;;;;5063803;28;20043;-68
2022/07/15 00:25:10;;;;;;;6.45;2.28;;;12.70;99.90;;;;;;5068045;28;20044;-68
2022/07/15 00:27:36;;;;;;;4.80;2.28;;;12.80;99.90;;;;;;5064177;28;20045;-68
2022/07/15 00:30:04;;;;;;;10.23;2.85;;;12.80;99.90;;;;;;5081506;28;20042;-68
2022/07/15 00:32:29;;;;;;;9.90;2.58;;;12.80;99.90;;;;;;5067449;28;20082;-68
2022/07/15 00:34:55;;;;;;;8.82;2.65;;;12.80;99.90;;;;;;5067730;28;20060;-68
2022/07/15 00:37:21;;;;;;;7.82;2.80;;;12.70;99.90;;;;;;5085582;28;20059;-68
2022/07/15 00:39:47;;;;;;;8.60;2.50;;;12.70;99.90;;;;;;5067640;28;20048;-68
2022/07/15 00:44:59;;;;;;;7.50;3.03;;;12.70;99.90;;;;;;5078591;28;20052;-68
2022/07/15 00:47:25;;;;;;;5.47;2.88;;;12.80;99.90;;;;;;5067250;28;20055;-68
2022/07/15 00:49:51;;;;;;;7.50;2.70;;;12.80;99.90;;;;;;5085511;28;20040;-68
2022/07/15 00:52:19;;;;;;;9.05;2.80;;;12.80;99.90;;;;;;5067239;28;20040;-68
2022/07/15 00:54:46;;;;;;;8.75;2.65;;;12.80;99.90;;;;;;5068038;28;20146;-68
2022/07/15 00:57:15;;;;;;;10.27;2.58;;;12.90;99.90;;;;;;5084785;28;20049;-68
2022/07/15 00:59:41;;;;;;;9.32;2.92;;;12.90;99.90;;;;;;5084234;28;20499;-68
2022/07/15 01:02:08;;;;;;;9.70;2.50;;;12.90;99.90;;;;;;5084740;28;20045;-68
2022/07/15 01:04:33;;;;;;;11.13;2.60;;;13.00;99.90;;;;;;5067428;28;20056;-68
2022/07/15 01:06:59;;;;;;;7.70;2.45;;;13.00;99.90;;;;;;5065098;28;20052;-68
2022/07/15 01:09:25;;;;;;;9.15;2.83;;;12.90;99.90;;;;;;5065309;28;20041;-68
2022/07/15 01:11:50;;;;;;;9.02;3.08;;;12.80;99.90;;;;;;5062651;28;20053;-68
2022/07/15 01:14:17;;;;;;;10.23;2.90;;;12.80;99.90;;;;;;5084728;28;20078;-68
2022/07/15 01:16:43;;;;;;;13.85;3.08;;;12.80;99.90;;;;;;5066908;28;20041;-68
2022/07/15 01:19:08;;;;;;;8.70;2.03;;;12.80;99.90;;;;;;5051147;28;20103;-68
2022/07/15 01:21:34;;;;;;;10.57;2.72;;;12.80;99.90;;;;;;5066770;28;20049;-68
2022/07/15 01:24:00;;;;;;;8.90;2.90;;;12.80;99.90;;;;;;5049990;28;20084;-68
2022/07/15 01:26:26;;;;;;;8.93;2.50;;;12.90;99.90;;;;;;5080996;28;20485;-68
2022/07/15 01:28:52;;;;;;;10.02;2.42;;;12.90;99.90;;;;;;5083587;28;20048;-68
2022/07/15 01:31:17;;;;;;;6.53;2.47;;;12.90;99.90;;;;;;5080594;28;20048;-68
2022/07/15 01:33:43;;;;;;;8.75;2.45;;;13.00;99.90;;;;;;5067399;28;20052;-68
2022/07/15 01:36:09;;;;;;;7.93;2.25;;;13.10;99.90;;;;;;5084946;28;20062;-68
2022/07/15 01:38:35;;;;;;;10.23;2.97;;;13.10;99.90;;;;;;5084982;28;20100;-68
2022/07/15 01:41:01;;;;;;;8.15;2.22;;;13.10;99.90;;;;;;5061480;28;20037;-68
2022/07/15 01:43:27;;;;;;;7.35;2.58;;;13.10;99.90;;;;;;5054123;28;20045;-68
2022/07/15 01:45:53;;;;;;;9.48;2.33;;;13.20;99.90;;;;;;5075995;28;20046;-68
2022/07/15 01:51:03;;;;;;;8.18;2.38;;;13.20;99.90;;;;;;5084323;28;20105;-68
2022/07/15 01:53:29;;;;;;;6.70;2.50;;;13.20;99.90;;;;;;5079521;28;20052;-68
2022/07/15 01:55:55;;;;;;;6.53;2.33;;;13.10;99.90;;;;;;5084139;28;20055;-68
2022/07/15 01:58:22;;;;;;;7.93;2.45;;;13.00;99.90;;;;;;5063055;28;20036;-68
2022/07/15 02:00:49;;;;;;;9.23;2.20;;;13.00;99.90;;;;;;5079700;28;20079;-68
2022/07/15 02:03:15;;;;;;;8.40;2.60;;;13.10;99.90;;;;;;5064371;28;20139;-68
2022/07/15 02:05:40;;;;;;;11.65;2.85;;;13.10;99.90;;;;;;5066313;28;20041;-67
2022/07/15 02:08:06;;;;;;;8.80;2.92;;;13.10;99.90;;;;;;5061953;28;20059;-68
2022/07/15 02:10:40;;;;;;;9.27;3.05;;;13.00;99.90;;;;;;5066209;28;20623;-68
2022/07/15 02:13:11;;;;;;;9.57;3.28;;;13.00;99.90;;;;;;5066400;28;20048;-68
2022/07/15 02:15:38;;;;;;;14.73;2.47;;;13.10;99.90;;;;;;5081324;28;20046;-68
2022/07/15 02:18:05;;;;;;;12.50;2.50;;;13.10;99.90;;;;;;5066451;28;20052;-68
2022/07/15 02:20:31;;;;;;;7.43;2.38;;;13.00;99.90;;;;;;5066178;28;20048;-69
2022/07/15 02:22:57;;;;;;;9.30;2.55;;;13.00;99.90;;;;;;5066172;28;20032;-68
2022/07/15 02:25:26;;;;;;;10.00;2.97;;;12.90;99.90;;;;;;5084981;28;20080;-67
2022/07/15 02:27:56;;;;;;;11.27;2.80;;;12.90;99.90;;;;;;5081656;28;20045;-68
2022/07/15 02:30:27;;;;;;;7.93;2.45;;;12.80;99.90;;;;;;5065979;28;20051;-68
2022/07/15 02:32:53;;;;;;;9.82;2.75;;;12.90;99.90;;;;;;5064880;28;20052;-68
2022/07/15 02:35:19;;;;;;;6.80;2.45;;;12.80;99.90;;;;;;5062051;28;20113;-68
2022/07/15 02:37:45;;;;;;;8.45;2.22;;;12.80;99.90;;;;;;5066233;28;20068;-68
2022/07/15 02:40:12;;;;;;;12.55;2.90;;;12.90;99.90;;;;;;5083907;28;20044;-68
2022/07/15 02:42:37;;;;;;;10.13;2.60;;;13.00;99.90;;;;;;5086439;28;20059;-68
2022/07/15 02:45:04;;;;;;;9.80;2.58;;;12.90;99.90;;;;;;5061457;28;20113;-68
2022/07/15 02:47:30;;;;;;;5.57;1.90;;;12.90;99.90;;;;;;5065898;28;20083;-68
2022/07/15 02:49:55;;;;;;;8.45;2.60;;;12.90;99.90;;;;;;5064451;28;20056;-68
2022/07/15 02:52:21;;;;;;;9.90;2.35;;;12.80;99.90;;;;;;5084347;28;20052;-67
2022/07/15 02:54:47;;;;;;;6.93;2.53;;;12.70;99.90;;;;;;5065620;28;20052;-68
2022/07/15 02:57:13;;;;;;;7.63;2.65;;;12.60;99.90;;;;;;5063015;28;20057;-68
2022/07/15 02:59:39;;;;;;;5.85;2.22;;;12.60;99.90;;;;;;5079093;28;20068;-68
2022/07/15 03:02:05;;;;;;;10.60;3.05;;;12.40;99.90;;;;;;5066326;28;20045;-68
2022/07/15 03:04:31;;;;;;;5.78;1.83;;;12.20;99.90;;;;;;5062496;28;20052;-68
2022/07/15 03:06:56;;;;;;;8.68;2.70;;;12.10;99.90;;;;;;5045982;28;20083;-68
2022/07/15 03:09:22;;;;;;;7.28;1.90;;;12.00;99.90;;;;;;5082243;28;20037;-68
2022/07/15 03:11:48;;;;;;;6.85;2.33;;;12.00;99.90;;;;;;5068312;28;20076;-68
2022/07/15 03:14:14;;;;;;;7.18;2.15;;;11.90;99.90;;;;;;5068947;28;20456;-68
2022/07/15 03:16:39;;;;;;;13.68;2.63;;;11.80;99.90;;;;;;5087338;28;20428;-68
2022/07/15 03:19:05;;;;;;;7.22;2.25;;;11.70;99.90;;;;;;5066403;28;20119;-68
2022/07/15 03:21:31;;;;;;;8.40;2.15;;;11.70;99.90;;;;;;5067129;28;20047;-68
2022/07/15 03:23:57;;;;;;;7.28;2.30;;;11.80;99.90;;;;;;5086612;28;20048;-68
2022/07/15 03:26:22;;;;;;;8.07;2.50;;;11.80;99.90;;;;;;5068966;28;20092;-68
2022/07/15 03:28:48;;;;;;;8.80;2.15;;;11.80;99.90;;;;;;5064178;28;20041;-68
2022/07/15 03:31:14;;;;;;;6.43;2.22;;;11.80;99.90;;;;;;5053143;28;20049;-68
2022/07/15 03:33:40;;;;;;;9.43;3.28;;;11.70;99.90;;;;;;5087730;28;20052;-68
2022/07/15 03:36:05;;;;;;;11.00;3.30;;;11.50;99.90;;;;;;5069563;28;20052;-68
2022/07/15 03:38:31;;;;;;;12.75;3.63;;;11.50;99.90;;;;;;5086990;28;20056;-68
2022/07/15 03:40:57;;;;;;;7.47;3.88;;;11.40;99.90;;;;;;5064709;28;20066;-68
2022/07/15 03:43:26;;;;;;;7.30;2.80;;;11.40;99.90;;;;;;5066497;28;20135;-68
2022/07/15 03:45:53;;;;;;;12.98;3.85;;;11.30;99.90;;;;;;5080598;28;20070;-68
2022/07/15 03:48:19;;;;;;;10.93;3.03;;;11.20;99.90;;;;;;5067978;28;20043;-68
2022/07/15 03:50:45;;;;;;;7.80;2.97;;;11.20;99.90;;;;;;5086806;28;20404;-68
2022/07/15 03:53:10;;;;;;;10.70;2.95;;;11.10;99.90;;;;;;5068407;28;20045;-68
2022/07/15 03:55:37;;;;;;;11.20;3.20;;;11.00;99.90;;;;;;5066071;28;20057;-68
2022/07/15 03:58:04;;;;;;;8.35;3.58;;;11.00;99.90;;;;;;5065132;28;20076;-68
2022/07/15 04:00:30;;;;;;;13.55;3.70;;;10.90;99.90;;;;;;5068178;28;20052;-68
2022/07/15 04:02:55;;;;;;;13.77;3.70;;;10.90;99.90;;;;;;5083106;28;20479;-68
2022/07/15 04:05:21;;;;;;;8.85;3.17;;;10.90;99.90;;;;;;5081861;28;20045;-68
2022/07/15 04:07:47;;;;;;;9.80;3.17;;;11.00;99.90;;;;;;5080468;28;20127;-68
2022/07/15 04:10:14;;;;;;;10.70;3.97;;;11.00;99.90;;;;;;5085868;28;20043;-68
2022/07/15 04:12:41;;;;;;;6.90;3.35;;;11.00;99.90;;;;;;5083392;28;20063;-68
2022/07/15 04:15:07;;;;;;;13.07;3.20;;;11.00;99.90;;;;;;5087063;28;20044;-68
2022/07/15 04:17:34;;;;;;;9.32;4.35;;;11.00;99.90;;;;;;5082303;28;20063;-68
2022/07/15 04:19:59;;;;;;;11.30;3.25;;;11.00;99.90;;;;;;5064159;28;20040;-68
2022/07/15 04:22:25;;;;;;;8.68;3.17;;;11.00;99.90;;;;;;5067056;28;20045;-68
2022/07/15 04:24:51;;;;;;;12.32;3.58;;;11.00;99.90;;;;;;5049662;28;20045;-68
2022/07/15 04:27:17;;;;;;;14.20;3.70;;;11.10;99.90;;;;;;5084374;28;20439;-68
2022/07/15 04:29:42;;;;;;;6.68;3.00;;;11.20;99.90;;;;;;5065844;28;20076;-68
2022/07/15 04:32:08;;;;;;;11.50;3.17;;;11.30;99.90;;;;;;5035898;28;20040;-67
2022/07/15 04:34:33;;;;;;;8.50;2.95;;;11.40;99.90;;;;;;5059748;28;20062;-68
2022/07/15 04:37:00;;;;;;;17.83;3.78;;;11.50;99.90;;;;;;5048809;28;20075;-68
2022/07/15 04:39:26;;;;;;;10.43;3.13;;;11.50;99.90;;;;;;5082538;28;20394;-67
2022/07/15 04:41:51;;;;;;;9.73;2.88;;;11.50;99.90;;;;;;5064260;28;20095;-67
2022/07/15 04:44:18;;;;;;;9.63;3.33;;;11.60;99.90;;;;;;5065286;28;20072;-69
2022/07/15 04:46:44;;;;;;;10.95;2.67;;;11.80;99.90;;;;;;5040166;28;20056;-70
2022/07/15 04:51:54;;;;;;;10.10;2.80;;;12.00;99.90;;;;;;5057585;28;20063;-67
2022/07/15 04:54:19;;;;;;;10.07;2.65;;;12.10;99.90;;;;;;5056591;28;20072;-67
2022/07/15 04:56:45;;;;;;;10.60;2.97;;;12.10;99.90;;;;;;5058781;28;20052;-68
2022/07/15 04:59:11;;;;;;;8.82;3.15;;;12.20;99.90;;;;;;5050911;28;20117;-67
2022/07/15 05:01:37;;;;;;;9.32;2.28;;;12.20;99.90;;;;;;5039431;28;20066;-67
2022/07/15 05:04:02;;;;;;;14.27;2.80;;;12.30;99.90;;;;;;5029531;28;20076;-69
2022/07/15 05:06:28;;;;;;;9.35;2.67;;;12.40;99.90;;;;;;5030965;28;20388;-69
2022/07/15 05:08:54;;;;;;;6.82;2.25;;;12.50;99.90;;;;;;5029135;28;20067;-69
2022/07/15 05:11:19;;;;;;;7.95;2.00;;;12.60;99.90;;;;;;5044689;28;20103;-69
2022/07/15 05:13:45;;;;;;;7.25;2.63;;;12.60;99.90;;;;;;5040591;28;20325;-69
2022/07/15 05:16:11;;;;;;;7.97;2.15;;;12.70;99.90;;;;;;5045053;28;20375;-69
2022/07/15 05:18:37;;;;;;;7.50;2.63;;;12.70;99.90;;;;;;5061832;28;20052;-67
2022/07/15 05:21:03;;;;;;;5.18;2.10;;;12.70;99.90;;;;;;5075468;28;20056;-67
2022/07/15 05:23:29;;;;;;;7.25;2.28;;;12.80;99.90;;;;;;5048006;28;20464;-67
2022/07/15 05:25:54;;;;;;;7.05;2.10;;;12.90;99.90;;;;;;5043791;28;20044;-67
2022/07/15 05:28:21;;;;;;;10.88;2.70;;;12.90;99.90;;;;;;5042301;28;20052;-67
2022/07/15 05:30:46;;;;;;;6.78;2.20;;;13.00;99.90;;;;;;5057680;28;20032;-67
2022/07/15 05:33:15;;;;;;;6.68;1.88;;;13.00;99.90;;;;;;5021790;28;20096;-68
2022/07/15 05:35:41;;;;;;;7.07;2.22;;;13.10;99.90;;;;;;5070367;28;20268;-68
2022/07/15 05:38:07;;;;;;;8.82;2.30;;;13.20;99.90;;;;;;5052489;28;20052;-67
2022/07/15 05:40:33;;;;;;;7.80;2.00;;;13.10;99.90;;;;;;5069045;28;20040;-67
2022/07/15 05:42:59;;;;;;;4.38;1.60;;;13.20;99.90;;;;;;5051508;28;20052;-68
2022/07/15 05:45:25;;;;;;;6.57;2.03;;;13.30;99.90;;;;;;5072747;28;20044;-68
2022/07/15 05:47:51;;;;;;;6.20;1.80;;;13.40;99.90;;;;;;5052063;28;20047;-68
2022/07/15 05:50:17;;;;;;;5.78;1.42;;;13.40;99.90;;;;;;5071531;28;20041;-68
2022/07/15 05:52:43;;;;;;;7.25;2.15;;;13.60;99.90;;;;;;5081075;28;20047;-69
2022/07/15 05:55:09;;;;;;;5.68;1.60;;;13.70;99.90;;;;;;5074029;28;20049;-68
2022/07/15 05:57:35;;;;;;;4.50;1.35;;;13.80;99.90;;;;;;5077345;28;20032;-66
2022/07/15 06:00:01;;;;;;;5.72;1.40;;;13.80;99.90;;;;;;5028466;28;20094;-66
2022/07/15 06:02:27;;;;;;;7.68;1.30;;;13.80;99.90;;;;;;5057350;28;20040;-66
2022/07/15 06:04:52;;;;;;;5.25;1.35;;;13.90;99.90;;;;;;5063691;28;20052;-66
2022/07/15 06:07:18;;;;;;;7.00;1.70;;;13.90;99.90;;;;;;5040704;28;20045;-66
2022/07/15 06:09:44;;;;;;;9.10;2.40;;;13.90;99.90;;;;;;5081697;28;20071;-66
2022/07/15 06:12:10;;;;;;;3.20;1.20;;;14.00;99.90;;;;;;5039194;28;20053;-66
2022/07/15 06:14:36;;;;;;;5.40;1.25;;;14.00;99.90;;;;;;5082524;28;20097;-67
2022/07/15 06:17:01;;;;;;;5.63;1.10;;;14.10;99.90;;;;;;5060051;28;20059;-66
2022/07/15 06:19:27;;;;;;;5.60;1.58;;;14.10;99.90;;;;;;5064344;28;20044;-66
2022/07/15 06:21:53;;;;;;;6.93;1.45;;;14.10;99.90;;;;;;5061087;28;20116;-66
2022/07/15 06:24:19;;;;;;;4.95;1.75;;;14.10;99.90;;;;;;5029743;28;20071;-66
2022/07/15 06:26:44;;;;;;;4.30;1.30;;;14.10;99.90;;;;;;5079182;28;20444;-66
2022/07/15 06:29:10;;;;;;;5.57;1.73;;;14.20;99.90;;;;;;5077862;28;20059;-66
2022/07/15 06:31:36;;;;;;;6.38;1.50;;;14.10;99.90;;;;;;5078393;28;20055;-66
2022/07/15 06:34:02;;;;;;;5.78;1.40;;;14.20;99.90;;;;;;5022984;28;20056;-66
2022/07/15 06:36:28;;;;;;;7.30;1.60;;;14.30;99.90;;;;;;5023516;28;20037;-66
2022/07/15 06:38:54;;;;;;;4.60;1.20;;;14.40;99.90;;;;;;5042345;28;20049;-66
2022/07/15 06:41:19;;;;;;;3.83;1.23;;;14.50;99.90;;;;;;5036861;28;20057;-67
2022/07/15 06:43:45;;;;;;;6.78;1.13;;;14.60;99.90;;;;;;5011049;28;20249;-66
2022/07/15 06:46:11;;;;;;;4.70;1.13;;;14.80;99.90;;;;;;5008980;28;20497;-66
2022/07/15 06:48:39;;;;;;;5.32;1.20;;;14.90;99.90;;;;;;5029514;28;20052;-66
2022/07/15 06:51:05;;;;;;;3.42;0.88;;;15.00;99.90;;;;;;5021822;28;22976;-66
2022/07/15 06:53:31;;;;;;;10.00;1.10;;;15.10;99.90;;;;;;5008873;28;20053;-67
2022/07/15 06:55:57;;;;;;;4.45;1.00;;;15.30;99.90;;;;;;5012215;28;20045;-66
2022/07/15 06:58:22;;;;;;;5.70;0.90;;;15.40;99.90;;;;;;5042459;28;20123;-67
2022/07/15 07:00:48;;;;;;;6.93;1.30;;;15.50;99.90;;;;;;5039868;28;20045;-67
2022/07/15 07:03:14;;;;;;;2.88;0.90;;;15.60;99.90;;;;;;5046384;28;20132;-66
2022/07/15 07:05:39;;;;;;;44.38;3.67;;;15.60;99.90;;;;;;5057890;28;20049;-66
2022/07/15 07:08:05;;;;;;;5.72;0.80;;;15.60;99.90;;;;;;5030667;28;20116;-66
2022/07/15 07:10:31;;;;;;;3.95;0.90;;;15.70;99.90;;;;;;5064404;28;20079;-66
2022/07/15 07:12:57;;;;;;;5.22;0.90;;;15.80;99.90;;;;;;5048615;28;20045;-66
2022/07/15 07:15:23;;;;;;;5.40;1.00;;;15.80;99.90;;;;;;5040605;28;20089;-66
2022/07/15 07:17:51;;;;;;;4.78;0.80;;;15.80;99.90;;;;;;5025231;28;20148;-66
2022/07/15 07:20:17;;;;;;;3.63;1.48;;;15.70;99.90;;;;;;5007198;28;20085;-66
2022/07/15 07:22:42;;;;;;;2.50;1.08;;;15.70;99.90;;;;;;5037073;28;20045;-66
2022/07/15 07:25:08;;;;;;;6.45;1.00;;;15.60;99.90;;;;;;5010391;28;20068;-67
2022/07/15 07:27:34;;;;;;;6.78;1.52;;;15.50;99.90;;;;;;5006469;28;20105;-66
2022/07/15 07:30:02;;;;;;;4.57;0.73;;;15.70;99.90;;;;;;5012599;28;20061;-66
2022/07/15 07:32:28;;;;;;;6.03;1.05;;;15.70;99.90;;;;;;5032970;28;20049;-67
2022/07/15 07:34:54;;;;;;;4.57;0.82;;;15.80;99.90;;;;;;5044605;28;20045;-67
2022/07/15 07:37:20;;;;;;;5.88;0.93;;;15.80;99.90;;;;;;5066330;28;20045;-67
2022/07/15 07:39:45;;;;;;;3.10;0.85;;;15.90;99.90;;;;;;5058520;28;20105;-67
2022/07/15 07:42:11;;;;;;;4.15;0.90;;;16.00;99.90;;;;;;5070647;28;20225;-68
2022/07/15 07:44:37;;;;;;;3.53;0.70;;;16.10;99.90;;;;;;5041869;28;20055;-67
2022/07/15 07:47:03;;;;;;;2.20;0.95;;;16.30;99.90;;;;;;5048925;28;20097;-67
2022/07/15 07:49:28;;;;;;;6.38;0.90;;;16.40;99.90;;;;;;5036227;28;20597;-67
2022/07/15 07:51:54;;;;;;;5.50;0.80;;;16.40;99.90;;;;;;5039665;28;20045;-67
2022/07/15 07:54:20;;;;;;;2.55;0.73;;;16.30;99.90;;;;;;5047722;28;20068;-67
2022/07/15 07:56:46;;;;;;;5.25;0.85;;;16.30;99.90;;;;;;5050539;28;20683;-67
2022/07/15 07:59:11;;;;;;;5.97;1.02;;;16.30;99.90;;;;;;5046268;28;20667;-68
2022/07/15 08:01:37;;;;;;;3.28;0.80;;;16.20;99.90;;;;;;5049898;28;20044;-68
2022/07/15 08:04:03;;;;;;;5.30;1.35;;;16.30;99.90;;;;;;5036552;28;20105;-67
2022/07/15 08:06:29;;;;;;;4.05;1.17;;;16.60;99.90;;;;;;5047577;28;20046;-67
2022/07/15 08:08:55;;;;;;;3.78;0.70;;;16.80;99.90;;;;;;5044608;28;20056;-68
2022/07/15 08:11:21;;;;;;;4.50;0.80;;;16.90;99.90;;;;;;5025424;28;20045;-67
2022/07/15 08:13:47;;;;;;;2.72;0.60;;;17.00;99.90;;;;;;5014124;28;20057;-67
2022/07/15 08:16:13;;;;;;;5.75;0.80;;;17.00;99.90;;;;;;5050721;28;20087;-67
2022/07/15 08:18:38;;;;;;;3.72;0.70;;;16.80;99.90;;;;;;5044480;28;20056;-67
2022/07/15 08:21:05;;;;;;;3.22;0.80;;;16.70;99.90;;;;;;5045032;28;20051;-67
2022/07/15 08:23:32;;;;;;;2.28;0.80;;;16.80;99.90;;;;;;5035772;28;20067;-67
2022/07/15 08:25:59;;;;;;;2.03;0.80;;;17.10;99.90;;;;;;5051580;28;20099;-67
2022/07/15 08:28:24;;;;;;;2.67;0.93;;;17.30;99.90;;;;;;5038919;28;20055;-67
2022/07/15 08:30:50;;;;;;;5.07;0.73;;;17.40;99.90;;;;;;5048063;28;20143;-69
2022/07/15 08:33:16;;;;;;;4.10;0.70;;;17.50;99.90;;;;;;5040191;28;20052;-67
2022/07/15 08:35:43;;;;;;;2.42;0.90;;;17.50;99.90;;;;;;5038407;28;20062;-68
2022/07/15 08:38:10;;;;;;;2.15;0.70;;;17.40;99.90;;;;;;5040277;28;20414;-67
2022/07/15 08:40:38;;;;;;;3.70;0.90;;;17.20;99.90;;;;;;4996969;28;20072;-67
2022/07/15 08:43:09;;;;;;;2.78;0.60;;;17.30;99.90;;;;;;5011245;28;20444;-67
2022/07/15 08:45:37;;;;;;;3.60;0.60;;;17.10;99.90;;;;;;5010908;28;20108;-67
2022/07/15 08:48:04;;;;;;;1.85;0.77;;;17.10;99.90;;;;;;5021275;28;20049;-67
2022/07/15 08:50:32;;;;;;;3.92;0.77;;;17.10;99.90;;;;;;5007138;28;20050;-67
2022/07/15 08:52:58;;;;;;;0.60;0.50;;;17.00;99.90;;;;;;5051542;28;20079;-68
2022/07/15 08:55:24;;;;;;;3.63;0.63;;;17.10;99.90;;;;;;5018472;28;20071;-67
2022/07/15 08:57:52;;;;;;;3.67;0.63;;;17.10;99.90;;;;;;5063767;28;20091;-67
2022/07/15 09:00:19;;;;;;;3.58;0.90;;;17.10;99.90;;;;;;5042281;28;20091;-67
2022/07/15 09:02:46;;;;;;;3.35;0.70;;;17.10;99.90;;;;;;5058088;28;20158;-68
2022/07/15 09:05:36;;;;;;;2.65;0.70;;;17.20;99.90;;;;;;5016231;28;20049;-67
2022/07/15 09:08:07;;;;;;;2.70;0.80;;;17.60;99.90;;;;;;5026621;28;20691;-67
2022/07/15 09:10:54;;;;;;;2.38;1.02;;;17.80;99.90;;;;;;5000513;28;20167;-67
2022/07/15 09:13:40;;;;;;;2.63;0.70;;;17.70;99.90;;;;;;5027111;28;20061;-68
2022/07/15 09:16:20;;;;;;;3.75;0.90;;;17.50;99.90;;;;;;5013801;28;20170;-67
2022/07/15 09:18:49;;;;;;;1.30;0.43;;;17.40;99.90;;;;;;5023225;28;20049;-67
2022/07/15 09:21:23;;;;;;;4.45;0.70;;;17.20;99.90;;;;;;5018634;28;20057;-67
2022/07/15 09:23:50;;;;;;;3.40;0.80;;;17.10;99.90;;;;;;5007072;28;20054;-68
2022/07/15 09:26:26;;;;;;;1.17;0.60;;;16.90;99.90;;;;;;5026127;28;20122;-67
2022/07/15 09:28:53;;;;;;;3.35;1.00;;;16.80;99.90;;;;;;5027106;28;20060;-67
2022/07/15 09:34:17;;;;;;;2.08;0.70;;;16.70;99.90;;;;;;5017615;28;20049;-67
2022/07/15 09:36:46;;;;;;;25.83;1.58;;;16.60;99.90;;;;;;5039373;28;20049;-68
2022/07/15 09:39:12;;;;;;;0.85;0.50;;;16.60;99.90;;;;;;5048267;28;20049;-68
2022/07/15 09:41:43;;;;;;;1.15;0.75;;;16.60;99.90;;;;;;5039502;28;20051;-68
2022/07/15 09:44:12;;;;;;;1.45;0.60;;;16.80;99.90;;;;;;5028130;28;20456;-68
2022/07/15 09:46:49;;;;;;;3.25;0.68;;;16.90;99.90;;;;;;5039373;28;20041;-67
2022/07/15 09:49:33;;;;;;;2.25;1.13;;;17.00;99.90;;;;;;5028375;28;20052;-67
2022/07/15 09:52:08;;;;;;;2.20;0.73;;;17.20;99.90;;;;;;5035745;28;20041;-68
2022/07/15 09:54:42;;;;;;;4.95;0.70;;;17.30;99.90;;;;;;5014556;28;20060;-68
2022/07/15 09:57:14;;;;;;;2.65;0.80;;;17.40;99.90;;;;;;5058146;28;20049;-68
2022/07/15 09:59:41;;;;;;;3.80;0.70;;;17.40;99.90;;;;;;5030898;28;20155;-68
2022/07/15 10:02:08;;;;;;;2.33;0.68;;;17.40;99.90;;;;;;5038860;28;20041;-67
2022/07/15 10:04:35;;;;;;;2.35;1.02;;;17.40;99.90;;;;;;5028891;28;20056;-67
2022/07/15 10:07:04;;;;;;;5.70;0.70;;;17.30;99.90;;;;;;5055291;28;20182;-68
2022/07/15 10:09:32;;;;;;;1.55;0.68;;;17.20;99.90;;;;;;5047314;28;20060;-67
2022/07/15 10:12:21;;;;;;;3.50;0.70;;;17.10;99.90;;;;;;5038657;28;20105;-67
2022/07/15 10:14:57;;;;;;;0.95;0.60;;;17.10;99.90;;;;;;5027667;28;20128;-67
2022/07/15 10:17:54;;;;;;;1.38;0.65;;;17.10;99.90;;;;;;5040265;28;20057;-67
2022/07/15 10:20:41;;;;;;;2.50;0.90;;;17.20;99.90;;;;;;5031493;28;20075;-67
2022/07/15 10:23:27;;;;;;;1.67;0.70;;;17.20;99.90;;;;;;5038127;28;20048;-66
2022/07/15 10:26:07;;;;;;;3.67;0.77;;;17.50;99.90;;;;;;5031642;28;20063;-66
2022/07/15 10:28:36;;;;;;;3.45;0.90;;;17.60;99.90;;;;;;5044006;28;20705;-66
2022/07/15 10:31:25;;;;;;;4.55;0.75;;;17.80;99.90;;;;;;5018457;28;20041;-66
2022/07/15 10:34:03;;;;;;;5.28;0.75;;;18.00;99.90;;;;;;5012466;28;20048;-66
2022/07/15 10:36:39;;;;;;;4.00;0.70;;;18.20;99.90;;;;;;5061471;28;20087;-66
2022/07/15 10:39:05;;;;;;;2.40;0.82;;;18.30;99.90;;;;;;5065256;28;20198;-66
2022/07/15 10:41:59;;;;;;;1.35;0.65;;;18.50;99.90;;;;;;5060437;28;20075;-67
2022/07/15 10:44:27;;;;;;;2.67;0.95;;;18.80;99.90;;;;;;5046226;28;20052;-65
2022/07/15 10:47:12;;;;;;;3.75;0.85;;;19.00;99.90;;;;;;5057613;28;20044;-66
2022/07/15 10:49:42;;;;;;;4.25;1.40;;;19.20;99.90;;;;;;5047258;28;20052;-68
2022/07/15 10:52:13;;;;;;;0.90;0.57;;;19.40;99.90;;;;;;5060175;28;20048;-68
2022/07/15 10:54:42;;;;;;;1.42;0.70;;;19.60;99.90;;;;;;5050118;28;20085;-68
2022/07/15 10:57:08;;;;;;;1.77;0.60;;;19.50;99.90;;;;;;5060521;28;20056;-68
2022/07/15 10:59:49;;;;;;;2.13;0.60;;;19.60;99.90;;;;;;5033208;28;20111;-68
2022/07/15 11:02:17;;;;;;;3.80;0.65;;;19.60;99.90;;;;;;5078716;28;20082;-68
2022/07/15 11:04:44;;;;;;;1.95;0.60;;;19.90;99.90;;;;;;5051673;28;20575;-68
2022/07/15 11:07:10;;;;;;;2.30;0.80;;;20.00;99.90;;;;;;5061524;28;20040;-68
2022/07/15 11:09:47;;;;;;;1.50;0.50;;;20.10;99.90;;;;;;5068028;28;20053;-68
2022/07/15 11:12:28;;;;;;;3.08;0.60;;;20.10;99.90;;;;;;5060033;28;20044;-69
2022/07/15 11:15:01;;;;;;;2.47;0.60;;;20.10;99.90;;;;;;5049771;28;20056;-69
2022/07/15 11:17:29;;;;;;;1.92;0.50;;;19.90;99.90;;;;;;5060228;28;20049;-69
2022/07/15 11:20:04;;;;;;;1.00;0.70;;;19.90;99.90;;;;;;5051575;28;20352;-68
2022/07/15 11:22:30;;;;;;;0.70;0.68;;;19.90;99.90;;;;;;5063022;28;20048;-68
2022/07/15 11:24:56;;;;;;;0.82;0.43;;;19.90;99.90;;;;;;5049525;28;20410;-68
2022/07/15 11:27:23;;;;;;;2.30;0.60;;;20.00;99.90;;;;;;5076666;28;20048;-69
2022/07/15 11:29:51;;;;;;;0.88;0.60;;;20.00;99.90;;;;;;5050373;28;20072;-68
2022/07/15 11:32:20;;;;;;;56.58;2.90;;;20.10;99.90;;;;;;5061001;28;20075;-68
2022/07/15 11:34:51;;;;;;;2.50;0.50;;;20.30;99.90;;;;;;5029562;28;20079;-68
2022/07/15 11:37:20;;;;;;;7.28;1.00;;;20.50;99.90;;;;;;5059634;28;20536;-69
2022/07/15 11:39:50;;;;;;;1.80;0.60;;;20.50;99.90;;;;;;5063322;28;20116;-68
2022/07/15 11:45:07;;;;;;;2.13;0.73;;;20.10;99.90;;;;;;5057649;28;20082;-68
2022/07/15 11:47:33;;;;;;;1.00;0.60;;;20.00;99.90;;;;;;5079408;28;20067;-68
2022/07/15 11:50:04;;;;;;;2.05;0.80;;;20.00;99.90;;;;;;5050101;28;20127;-68
2022/07/15 11:52:30;;;;;;;4.30;1.10;;;19.80;99.90;;;;;;5061135;28;20045;-68
2022/07/15 11:54:56;;;;;;;3.20;0.70;;;19.70;99.90;;;;;;5049266;28;20549;-68
2022/07/15 11:57:23;;;;;;;1.15;0.70;;;19.60;99.90;;;;;;5059056;28;20348;-68
2022/07/15 11:59:57;;;;;;;1.20;0.60;;;19.50;99.90;;;;;;5066877;28;20052;-68
2022/07/15 12:02:25;;;;;;;5.85;0.75;;;19.40;99.90;;;;;;5056908;28;20060;-68
2022/07/15 12:04:52;;;;;;;1.30;0.70;;;19.50;99.90;;;;;;5049814;28;20056;-68
2022/07/15 12:07:17;;;;;;;3.03;0.75;;;19.60;99.90;;;;;;5058823;28;20044;-69
2022/07/15 12:09:49;;;;;;;3.40;0.70;;;19.70;99.90;;;;;;5048933;28;20052;-68
2022/07/15 12:12:15;;;;;;;2.67;0.90;;;19.90;99.90;;;;;;5058869;28;20040;-71
2022/07/15 12:14:45;;;;;;;7.43;0.70;;;20.10;99.90;;;;;;5048984;28;20048;-69
2022/07/15 12:17:10;;;;;;;5.53;1.15;;;20.30;99.90;;;;;;5058832;28;20044;-69
2022/07/15 12:19:37;;;;;;;2.28;0.77;;;20.40;99.90;;;;;;5048686;28;20072;-68
2022/07/15 12:22:08;;;;;;;2.63;0.70;;;20.40;99.90;;;;;;5058067;28;20435;-69
2022/07/15 12:24:52;;;;;;;4.32;1.20;;;20.40;99.90;;;;;;5050962;28;20063;-69
2022/07/15 12:27:39;;;;;;;3.90;0.73;;;20.30;99.90;;;;;;5061670;28;20053;-68
2022/07/15 12:30:07;;;;;;;2.90;0.60;;;20.30;99.90;;;;;;5066497;28;20061;-68
2022/07/15 12:32:33;;;;;;;0.85;0.50;;;20.10;99.90;;;;;;5054516;28;20044;-68
2022/07/15 12:35:01;;;;;;;2.67;0.65;;;20.20;99.90;;;;;;5053557;28;20052;-68
2022/07/15 12:37:31;;;;;;;2.63;0.80;;;20.30;99.90;;;;;;5056915;28;20120;-68
2022/07/15 12:40:04;;;;;;;1.92;0.68;;;20.20;99.90;;;;;;5068003;28;20135;-68
2022/07/15 12:42:32;;;;;;;2.05;0.60;;;20.30;99.90;;;;;;5054719;28;20072;-68
2022/07/15 12:45:06;;;;;;;2.08;0.80;;;20.30;99.90;;;;;;5048767;28;20056;-69
2022/07/15 12:47:31;;;;;;;1.52;0.50;;;20.40;99.90;;;;;;5078036;28;20116;-68
2022/07/15 12:49:59;;;;;;;3.65;0.70;;;20.70;99.90;;;;;;5049568;28;20564;-68
2022/07/15 12:52:33;;;;;;;3.45;0.70;;;20.80;99.90;;;;;;5052841;28;20419;-68
2022/07/15 12:55:11;;;;;;;1.80;0.50;;;21.00;99.90;;;;;;5068243;28;20106;-69
2022/07/15 12:57:37;;;;;;;1.73;0.57;;;20.90;99.90;;;;;;5075510;28;20100;-68
2022/07/15 13:00:15;;;;;;;1.75;0.60;;;20.60;99.90;;;;;;5065605;28;20083;-68
2022/07/15 13:03:03;;;;;;;3.55;0.75;;;20.50;99.90;;;;;;5075818;28;20064;-69